Time;durP1;ratioP1;P1;durP2;ratioP2;P2;SDS_P1;SDS_P2;PMS_P1;PMS_P2;Temp;Humidity;BMP_temperature;BMP_pressure;BME280_temperature;BME280_humidity;BME280_pressure;Samples;Min_cycle;Max_cycle;Signal;HPM_P1;HPM_P2
2022/06/13 00:01:56;;;;;;;6.37;5.65;;;;;;;22.68;55.24;100028.03;1703841;84;22013;-61
2022/06/13 00:04:25;;;;;;;7.00;5.75;;;;;;;22.65;55.40;100024.41;1703589;84;21027;-61
2022/06/13 00:06:55;;;;;;;8.08;5.35;;;;;;;22.64;55.63;100028.33;1703733;84;21485;-61
2022/06/13 00:09:25;;;;;;;9.00;5.60;;;;;;;22.62;55.74;100023.59;1703692;83;21044;-60
2022/06/13 00:11:55;;;;;;;7.35;5.60;;;;;;;22.57;55.99;100021.66;1703868;84;21531;-60
2022/06/13 00:14:24;;;;;;;7.20;5.72;;;;;;;22.56;56.12;100023.34;1703738;84;21613;-60
2022/06/13 00:16:53;;;;;;;7.30;5.37;;;;;;;22.54;56.43;100020.00;1703774;84;21004;-60
2022/06/13 00:19:22;;;;;;;8.93;5.78;;;;;;;22.52;56.51;100020.84;1722619;83;21062;-61
2022/06/13 00:21:51;;;;;;;7.58;5.75;;;;;;;22.51;56.64;100021.41;1723632;83;21051;-61
2022/06/13 00:24:20;;;;;;;6.78;5.37;;;;;;;22.46;56.76;100020.03;1723747;83;21054;-61
2022/06/13 00:26:49;;;;;;;8.80;5.92;;;;;;;22.45;56.80;100020.59;1723540;83;21457;-61
2022/06/13 00:29:18;;;;;;;8.43;5.72;;;;;;;22.44;56.77;100018.92;1723499;83;21050;-60
2022/06/13 00:31:47;;;;;;;8.68;5.47;;;;;;;22.44;56.79;100016.69;1723527;83;21031;-61
2022/06/13 00:34:16;;;;;;;7.90;5.58;;;;;;;22.42;56.86;100016.14;1723424;83;21545;-60
2022/06/13 00:36:46;;;;;;;8.40;5.97;;;;;;;22.39;56.82;100022.30;1723649;83;21053;-61
2022/06/13 00:39:15;;;;;;;8.83;5.78;;;;;;;22.36;56.90;100016.72;1723140;83;21070;-61
2022/06/13 00:41:44;;;;;;;8.58;5.50;;;;;;;22.36;56.96;100022.30;1723245;83;21050;-61
2022/06/13 00:44:24;;;;;;;6.37;5.10;;;;;;;22.30;56.92;100019.25;1723200;83;21514;-60
2022/06/13 00:46:53;;;;;;;8.60;5.28;;;;;;;22.24;56.99;100016.20;1723153;83;21493;-61
2022/06/13 00:52:59;;;;;;;7.28;5.37;;;;;;;22.14;57.20;100017.64;1723571;83;21047;-60
2022/06/13 00:55:52;;;;;;;9.00;5.85;;;;;;;22.10;57.35;100012.31;1723120;83;21753;-60
2022/06/13 00:58:21;;;;;;;6.80;5.70;;;;;;;22.04;57.53;100013.45;1723602;83;21026;-61
2022/06/13 01:00:54;;;;;;;6.58;5.30;;;;;;;22.03;57.60;100013.17;1723487;83;21097;-60
2022/06/13 01:03:26;;;;;;;7.35;5.17;;;;;;;22.02;57.70;100012.86;1723571;83;21086;-61
2022/06/13 01:05:57;;;;;;;9.13;5.37;;;;;;;21.98;57.89;100011.75;1723376;83;21027;-61
2022/06/13 01:08:26;;;;;;;6.83;5.30;;;;;;;21.95;58.04;100006.18;1723545;83;21026;-61
2022/06/13 01:11:18;;;;;;;7.42;5.42;;;;;;;21.94;58.20;100004.51;1723385;83;21082;-60
2022/06/13 01:14:20;;;;;;;7.87;5.28;;;;;;;21.94;58.28;100007.30;1723565;83;21050;-60
2022/06/13 01:17:21;;;;;;;8.13;5.42;;;;;;;21.88;58.47;100007.03;1723350;82;21059;-61
2022/06/13 01:20:14;;;;;;;8.75;5.53;;;;;;;21.83;58.63;100006.48;1678618;83;21043;-61
2022/06/13 01:23:23;;;;;;;10.88;5.58;;;;;;;21.77;58.81;100009.00;1720804;83;21059;-61
2022/06/13 01:26:20;;;;;;;8.00;5.75;;;;;;;21.71;58.91;100012.08;1721161;83;21448;-60
2022/06/13 01:29:07;;;;;;;11.90;6.17;;;;;;;21.66;59.17;100019.90;1660514;83;21031;-61
2022/06/13 01:31:52;;;;;;;8.75;5.85;;;;;;;21.66;59.39;100023.24;1690927;84;21060;-61
2022/06/13 01:34:42;;;;;;;7.47;4.97;;;;;;;21.63;59.61;100016.27;1721108;83;21067;-62
2022/06/13 01:37:50;;;;;;;7.65;6.12;;;;;;;21.62;59.84;100022.97;1688787;84;21444;-59
2022/06/13 01:40:43;;;;;;;8.58;5.90;;;;;;;21.61;60.01;100021.30;1645164;84;21027;-60
2022/06/13 01:43:21;;;;;;;7.45;5.58;;;;;;;21.59;60.23;100024.92;1721021;83;21508;-60
2022/06/13 01:46:31;;;;;;;7.78;5.45;;;;;;;21.56;60.36;100015.72;1721335;83;21505;-60
2022/06/13 01:49:29;;;;;;;8.48;5.10;;;;;;;21.54;60.56;100020.73;1721114;83;21082;-61
2022/06/13 01:52:04;;;;;;;11.28;5.42;;;;;;;21.50;60.88;100025.20;1721390;83;21098;-61
2022/06/13 01:54:56;;;;;;;8.73;5.65;;;;;;;21.49;61.00;100022.97;1689168;84;21031;-62
2022/06/13 01:57:42;;;;;;;7.95;4.97;;;;;;;21.50;61.15;100021.02;1688762;85;21003;-61
2022/06/13 02:00:24;;;;;;;8.33;5.20;;;;;;;21.50;61.40;100021.02;1688591;84;21079;-60
2022/06/13 02:03:20;;;;;;;6.92;5.42;;;;;;;21.47;61.64;100021.58;1689061;85;21060;-61
2022/06/13 02:06:00;;;;;;;7.70;5.50;;;;;;;21.46;61.65;100019.91;1721082;83;21043;-61
2022/06/13 02:08:47;;;;;;;8.58;5.08;;;;;;;21.48;61.69;100019.91;1689074;85;20996;-62
2022/06/13 02:11:21;;;;;;;7.00;5.40;;;;;;;21.45;61.83;100020.98;1688651;84;21464;-61
2022/06/13 02:14:01;;;;;;;10.48;5.75;;;;;;;21.43;62.08;100021.27;1659841;86;21044;-60
2022/06/13 02:16:44;;;;;;;15.28;7.05;;;;;;;21.41;62.10;100024.89;1665236;86;21416;-60
2022/06/13 02:19:19;;;;;;;12.40;6.25;;;;;;;21.41;62.28;100022.66;1639697;86;21079;-61
2022/06/13 02:21:53;;;;;;;6.90;5.20;;;;;;;21.39;62.45;100017.36;1656755;86;21051;-61
2022/06/13 02:24:26;;;;;;;9.88;5.85;;;;;;;21.39;62.59;100022.10;1655857;86;21023;-61
2022/06/13 02:26:57;;;;;;;8.20;5.42;;;;;;;21.39;62.68;100022.10;1656802;86;21063;-60
2022/06/13 02:29:46;;;;;;;6.05;5.42;;;;;;;21.37;62.79;100022.94;1656345;86;21507;-62
2022/06/13 02:32:19;;;;;;;11.68;5.45;;;;;;;21.36;62.88;100016.53;1691611;83;21071;-61
2022/06/13 02:34:55;;;;;;;7.15;5.12;;;;;;;21.34;63.01;100025.73;1716295;83;21031;-60
2022/06/13 02:37:29;;;;;;;10.13;5.83;;;;;;;21.32;63.18;100019.59;1716591;83;21031;-60
2022/06/13 02:40:24;;;;;;;6.62;5.60;;;;;;;21.32;63.35;100020.16;1716715;83;21019;-61
2022/06/13 02:43:00;;;;;;;8.48;5.72;;;;;;;21.33;63.49;100021.83;1716694;83;21044;-61
2022/06/13 02:45:37;;;;;;;10.38;5.70;;;;;;;21.34;63.68;100023.50;1716226;83;21158;-60
2022/06/13 02:48:27;;;;;;;7.45;5.53;;;;;;;21.31;63.69;100020.70;1716556;83;21023;-60
2022/06/13 02:51:12;;;;;;;8.48;5.47;;;;;;;21.30;64.04;100020.43;1716478;83;21074;-60
2022/06/13 02:54:12;;;;;;;9.45;5.78;;;;;;;21.24;64.35;100022.09;1716464;83;21066;-60
2022/06/13 03:00:21;;;;;;;14.47;7.17;;;;;;;21.26;64.73;100019.31;1716409;83;21521;-61
2022/06/13 03:03:13;;;;;;;9.80;5.70;;;;;;;21.27;64.88;100028.51;1702905;83;21034;-60
2022/06/13 03:05:54;;;;;;;7.05;5.47;;;;;;;21.24;65.00;100027.11;1716570;83;21087;-60
2022/06/13 03:08:49;;;;;;;7.87;5.67;;;;;;;21.26;64.99;100026.84;1716434;83;21504;-61
2022/06/13 03:11:39;;;;;;;9.00;5.92;;;;;;;21.29;65.06;100031.86;1716072;83;21059;-61
2022/06/13 03:14:22;;;;;;;7.60;6.08;;;;;;;21.30;65.20;100032.13;1716557;83;21070;-61
2022/06/13 03:17:03;;;;;;;9.20;6.03;;;;;;;21.30;65.28;100038.55;1663868;84;21022;-60
2022/06/13 03:19:58;;;;;;;7.90;5.62;;;;;;;21.30;65.38;100040.49;1675206;84;21107;-60
2022/06/13 03:22:50;;;;;;;10.68;6.60;;;;;;;21.33;65.39;100042.17;1649615;86;21095;-60
2022/06/13 03:25:33;;;;;;;10.20;5.60;;;;;;;21.36;65.56;100038.83;1624073;88;21529;-61
2022/06/13 03:28:37;;;;;;;11.48;5.50;;;;;;;21.37;65.72;100042.45;1637393;87;21593;-60
2022/06/13 03:31:14;;;;;;;10.10;6.30;;;;;;;21.40;65.85;100036.32;1649264;86;21538;-61
2022/06/13 03:33:48;;;;;;;11.55;6.33;;;;;;;21.42;65.90;100033.53;1649335;86;21504;-60
2022/06/13 03:36:25;;;;;;;12.82;6.25;;;;;;;21.44;65.93;100038.27;1696167;84;21079;-61
2022/06/13 03:39:08;;;;;;;8.78;6.00;;;;;;;21.44;65.96;100040.22;1708793;84;21179;-61
2022/06/13 03:41:45;;;;;;;10.50;6.05;;;;;;;21.40;65.90;100046.91;1646957;87;21146;-60
2022/06/13 03:44:25;;;;;;;8.73;6.37;;;;;;;21.43;65.86;100046.91;1647332;87;21052;-61
2022/06/13 03:47:14;;;;;;;10.72;5.45;;;;;;;21.43;65.79;100044.96;1647318;87;21250;-61
2022/06/13 03:49:49;;;;;;;9.15;5.97;;;;;;;21.47;65.70;100045.27;1647103;87;21583;-61
2022/06/13 03:52:17;;;;;;;16.20;6.72;;;;;;;21.48;65.61;100052.52;1646858;86;21380;-61
2022/06/13 03:55:13;;;;;;;8.60;5.92;;;;;;;21.50;65.50;100056.70;1647158;87;21507;-61
2022/06/13 03:57:59;;;;;;;11.65;6.47;;;;;;;21.51;65.43;100054.75;1647142;87;21162;-60
2022/06/13 04:00:40;;;;;;;8.65;6.00;;;;;;;21.47;65.37;100058.66;1647056;87;21135;-61
2022/06/13 04:03:08;;;;;;;10.30;6.95;;;;;;;21.48;65.21;100058.94;1647317;87;21079;-62
2022/06/13 04:05:44;;;;;;;13.72;7.28;;;;;;;21.50;64.93;100052.52;1662382;84;21057;-62
2022/06/13 04:08:14;;;;;;;9.70;6.47;;;;;;;21.50;64.95;100056.70;1705688;84;21048;-60
2022/06/13 04:11:21;;;;;;;7.67;5.80;;;;;;;21.53;64.97;100065.07;1708496;84;21040;-60
2022/06/13 04:14:23;;;;;;;10.18;6.17;;;;;;;21.56;64.93;100067.86;1708681;84;21084;-61
2022/06/13 04:17:16;;;;;;;9.13;6.00;;;;;;;21.54;64.87;100075.11;1708537;84;21000;-60
2022/06/13 04:20:20;;;;;;;9.70;6.42;;;;;;;21.57;64.90;100063.95;1703801;84;21491;-60
2022/06/13 04:23:07;;;;;;;7.72;6.37;;;;;;;21.61;64.66;100063.67;1698758;84;21068;-63
2022/06/13 04:26:01;;;;;;;9.35;6.12;;;;;;;21.64;64.27;100069.53;1698848;84;21087;-59
2022/06/13 04:28:52;;;;;;;10.32;6.70;;;;;;;21.64;64.13;100072.88;1698785;84;21547;-61
2022/06/13 04:31:22;;;;;;;11.48;6.55;;;;;;;21.68;63.92;100067.02;1692499;84;21539;-62
2022/06/13 04:34:14;;;;;;;9.03;6.00;;;;;;;21.68;63.82;100070.64;1699039;83;21048;-61
2022/06/13 04:36:47;;;;;;;10.08;5.97;;;;;;;21.72;63.94;100070.37;1698700;84;21480;-60
2022/06/13 04:39:19;;;;;;;8.63;6.22;;;;;;;21.77;63.84;100068.13;1698865;84;21052;-60
2022/06/13 04:41:50;;;;;;;9.03;6.62;;;;;;;21.80;63.87;100069.80;1698752;83;21075;-60
2022/06/13 04:44:23;;;;;;;10.32;6.70;;;;;;;21.83;63.80;100067.02;1699068;84;21095;-60
2022/06/13 04:46:51;;;;;;;10.88;6.67;;;;;;;21.89;63.67;100071.47;1698823;84;21498;-61
2022/06/13 04:49:35;;;;;;;15.40;8.03;;;;;;;21.95;63.51;100068.95;1698981;84;21076;-60
2022/06/13 04:52:14;;;;;;;10.50;7.65;;;;;;;22.02;63.32;100063.08;1698931;84;21476;-61
2022/06/13 04:54:50;;;;;;;9.98;7.70;;;;;;;22.09;62.90;100063.66;1699057;84;21055;-61
2022/06/13 04:57:20;;;;;;;11.70;7.85;;;;;;;22.23;62.48;100068.13;1698788;84;21052;-60
2022/06/13 04:59:49;;;;;;;14.07;8.43;;;;;;;22.47;61.89;100069.17;1698935;84;21064;-61
2022/06/13 05:02:28;;;;;;;11.22;8.08;;;;;;;22.74;61.15;100067.38;1698971;84;21076;-60
2022/06/13 05:04:58;;;;;;;11.83;7.72;;;;;;;23.03;59.54;100068.98;1698304;84;21493;-61
2022/06/13 05:07:28;;;;;;;12.70;7.60;;;;;;;23.28;59.03;100069.38;1699020;84;21008;-60
2022/06/13 05:10:02;;;;;;;8.50;6.83;;;;;;;23.57;57.72;100064.75;1698739;84;21071;-60
2022/06/13 05:12:41;;;;;;;10.80;6.70;;;;;;;23.83;56.24;100068.16;1698726;84;21063;-61
2022/06/13 05:15:20;;;;;;;12.20;7.00;;;;;;;24.01;55.54;100067.99;1698688;84;21068;-59
2022/06/13 05:18:22;;;;;;;10.68;6.42;;;;;;;24.21;55.00;100073.41;1698607;84;21445;-60
2022/06/13 05:21:15;;;;;;;9.90;5.83;;;;;;;24.46;54.54;100078.50;1698546;84;21004;-61
2022/06/13 05:24:11;;;;;;;8.58;5.40;;;;;;;24.79;53.31;100069.15;1698631;84;21028;-61
2022/06/13 05:26:41;;;;;;;9.50;5.80;;;;;;;25.09;52.36;100072.70;1698915;84;21400;-61
2022/06/13 05:29:10;;;;;;;7.78;5.95;;;;;;;25.33;51.31;100069.26;1698759;84;21081;-61
2022/06/13 05:31:39;;;;;;;7.75;5.78;;;;;;;25.58;50.60;100077.30;1698860;84;21028;-60
2022/06/13 05:34:10;;;;;;;8.23;4.78;;;;;;;25.81;50.07;100072.75;1698849;84;21448;-61
2022/06/13 05:36:39;;;;;;;8.43;4.80;;;;;;;26.10;48.90;100084.34;1698715;84;21335;-61
2022/06/13 05:39:08;;;;;;;11.20;5.50;;;;;;;26.28;48.75;100082.61;1699071;84;21080;-63
2022/06/13 05:41:37;;;;;;;6.87;5.25;;;;;;;26.49;48.12;100075.48;1699010;84;21024;-61
2022/06/13 05:44:09;;;;;;;8.08;4.87;;;;;;;26.65;47.74;100078.23;1698715;84;21032;-60
2022/06/13 05:46:38;;;;;;;9.73;4.78;;;;;;;26.90;47.06;100084.50;1698700;84;21036;-61
2022/06/13 05:49:07;;;;;;;8.00;5.22;;;;;;;27.08;47.16;100082.16;1698790;84;21111;-62
2022/06/13 05:51:37;;;;;;;10.48;4.70;;;;;;;27.32;46.84;100084.16;1699031;84;21064;-61
2022/06/13 05:54:09;;;;;;;7.62;4.67;;;;;;;27.54;45.86;100090.40;1698627;84;21508;-62
2022/06/13 05:56:38;;;;;;;5.78;4.55;;;;;;;27.73;44.85;100077.58;1698932;84;21072;-62
2022/06/13 05:59:07;;;;;;;7.72;4.87;;;;;;;27.84;44.53;100083.78;1698640;83;21024;-60
2022/06/13 06:01:36;;;;;;;5.00;4.30;;;;;;;28.00;44.04;100083.68;1698863;84;21481;-60
2022/06/13 06:04:05;;;;;;;13.22;4.97;;;;;;;28.50;42.77;100087.71;1698704;84;21241;-60
2022/06/13 06:06:36;;;;;;;6.95;4.50;;;;;;;28.66;42.31;100098.26;1698876;84;21107;-61
2022/06/13 06:09:06;;;;;;;9.65;5.15;;;;;;;28.66;42.31;100098.26;1699241;84;21152;-61
2022/06/13 06:11:36;;;;;;;9.50;5.10;;;;;;;28.75;41.65;100078.55;1698654;83;21088;-60
2022/06/13 06:14:04;;;;;;;7.17;4.40;;;;;;;28.81;41.80;100083.46;1698669;84;20993;-61
2022/06/13 06:16:33;;;;;;;4.80;4.12;;;;;;;28.83;41.97;100086.78;1698593;83;21068;-61
2022/06/13 06:19:04;;;;;;;5.50;4.33;;;;;;;29.16;41.16;100090.88;1698833;84;21036;-61
2022/06/13 06:21:34;;;;;;;6.47;4.30;;;;;;;29.37;40.13;100087.45;1698755;84;21084;-62
2022/06/13 06:24:06;;;;;;;10.32;4.28;;;;;;;29.51;40.29;100083.91;1698319;84;21456;-62
2022/06/13 06:26:34;;;;;;;7.78;4.28;;;;;;;29.53;40.08;100085.24;1698734;84;21892;-59
2022/06/13 06:29:03;;;;;;;5.95;4.50;;;;;;;29.58;40.15;100083.66;1698762;84;21016;-62
2022/06/13 06:31:32;;;;;;;8.03;4.28;;;;;;;29.67;39.48;100089.31;1698793;84;21048;-62
2022/06/13 06:34:01;;;;;;;5.12;4.10;;;;;;;29.72;39.38;100077.02;1698804;84;21095;-61
2022/06/13 06:36:30;;;;;;;5.80;3.62;;;;;;;29.74;39.16;100079.75;1698667;83;21064;-62
2022/06/13 06:38:59;;;;;;;6.92;4.25;;;;;;;29.74;38.38;100081.16;1698682;84;21484;-61
2022/06/13 06:41:28;;;;;;;4.30;3.55;;;;;;;29.71;38.59;100084.66;1698844;84;21111;-61
2022/06/13 06:43:58;;;;;;;6.03;4.20;;;;;;;29.75;38.35;100074.34;1698988;84;21433;-61
2022/06/13 06:46:28;;;;;;;8.08;4.40;;;;;;;29.63;38.45;100079.84;1698767;83;21076;-62
2022/06/13 06:48:57;;;;;;;6.67;4.67;;;;;;;29.72;37.96;100072.19;1698865;84;21052;-62
2022/06/13 06:51:29;;;;;;;9.55;4.00;;;;;;;29.84;37.81;100077.16;1698510;84;21464;-60
2022/06/13 07:02:24;;;;;;;8.90;4.20;;;;;;;29.87;38.07;100060.38;1699018;84;21072;-60
2022/06/13 07:04:55;;;;;;;9.18;3.58;;;;;;;30.03;37.59;100069.22;1698221;84;21025;-60
2022/06/13 07:07:23;;;;;;;6.85;3.77;;;;;;;30.17;37.29;100064.77;1703753;84;21171;-62
2022/06/13 07:09:54;;;;;;;4.35;3.52;;;;;;;30.22;37.03;100066.00;1698701;83;21496;-61
2022/06/13 07:12:23;;;;;;;5.83;4.10;;;;;;;30.37;37.01;100066.87;1699028;84;21032;-61
2022/06/13 07:14:52;;;;;;;8.40;4.12;;;;;;;30.63;36.56;100069.65;1698680;84;21446;-61
2022/06/13 07:17:22;;;;;;;4.95;3.47;;;;;;;30.65;36.24;100076.38;1698450;84;21517;-60
2022/06/13 07:19:51;;;;;;;4.92;3.92;;;;;;;30.55;36.15;100070.45;1698550;83;21067;-61
2022/06/13 07:22:23;;;;;;;6.12;3.80;;;;;;;30.50;36.54;100066.40;1698597;84;21123;-61
2022/06/13 07:24:52;;;;;;;4.28;3.85;;;;;;;30.57;36.32;100060.49;1698679;84;21032;-60
2022/06/13 07:27:23;;;;;;;9.73;4.12;;;;;;;30.61;35.44;100062.09;1698741;84;21027;-62
2022/06/13 07:29:52;;;;;;;6.67;4.00;;;;;;;30.42;36.14;100061.61;1698893;84;21064;-60
2022/06/13 07:32:27;;;;;;;8.85;3.37;;;;;;;30.49;36.49;100068.40;1698666;84;21517;-63
2022/06/13 07:35:02;;;;;;;4.60;3.60;;;;;;;30.75;35.64;100060.44;1698141;83;21084;-62
2022/06/13 07:40:20;;;;;;;7.75;3.90;;;;;;;30.97;34.50;100064.38;1698981;84;21071;-61
2022/06/13 07:42:52;;;;;;;7.42;3.25;;;;;;;30.89;34.82;100060.44;1698831;84;21107;-62
2022/06/13 07:45:24;;;;;;;4.85;3.20;;;;;;;30.88;35.01;100055.13;1698989;83;21077;-61
2022/06/13 07:47:54;;;;;;;4.80;2.87;;;;;;;30.99;34.02;100064.88;1699470;84;21036;-60
2022/06/13 07:50:25;;;;;;;5.03;2.80;;;;;;;31.24;33.55;100061.69;1698989;84;21029;-62
2022/06/13 07:52:53;;;;;;;4.55;3.02;;;;;;;31.44;31.80;100058.61;1698224;83;21048;-63
2022/06/13 07:55:25;;;;;;;3.22;2.40;;;;;;;31.44;32.00;100059.44;1690773;84;21044;-63
2022/06/13 07:57:54;;;;;;;4.70;2.65;;;;;;;31.42;31.55;100052.46;1696894;84;21000;-62
2022/06/13 08:00:26;;;;;;;3.30;2.27;;;;;;;31.54;31.00;100051.11;1697724;84;21076;-62
2022/06/13 08:02:55;;;;;;;11.05;3.65;;;;;;;31.69;31.28;100053.30;1694117;83;21048;-60
2022/06/13 08:05:23;;;;;;;5.53;2.40;;;;;;;31.81;31.01;100048.30;1698925;84;21017;-61
2022/06/13 08:07:53;;;;;;;3.90;2.35;;;;;;;31.80;30.98;100050.30;1698909;83;21437;-61
2022/06/13 08:10:23;;;;;;;4.62;2.50;;;;;;;31.92;30.35;100053.80;1699904;83;21031;-62
2022/06/13 08:12:52;;;;;;;4.45;2.47;;;;;;;31.96;30.47;100048.27;1703708;84;21567;-61
2022/06/13 08:15:24;;;;;;;4.40;2.90;;;;;;;32.06;30.67;100044.98;1651818;86;21027;-61
2022/06/13 08:17:53;;;;;;;2.92;2.42;;;;;;;32.16;30.55;100049.62;1669040;85;21040;-60
2022/06/13 08:20:23;;;;;;;3.35;2.55;;;;;;;32.09;30.69;100048.53;1671272;85;21472;-62
2022/06/13 08:22:54;;;;;;;4.60;2.40;;;;;;;31.85;30.99;100044.42;1675758;84;21099;-62
2022/06/13 08:25:26;;;;;;;2.60;2.17;;;;;;;31.68;30.78;100047.39;1667100;85;21305;-60
2022/06/13 08:27:56;;;;;;;2.75;2.25;;;;;;;31.59;30.31;100053.73;1656421;86;21509;-62
2022/06/13 08:30:31;;;;;;;4.70;2.27;;;;;;;31.64;30.34;100035.10;1664658;86;21102;-62
2022/06/13 08:33:00;;;;;;;3.47;2.40;;;;;;;31.77;30.16;100038.84;1664541;86;21479;-64
2022/06/13 08:35:30;;;;;;;2.72;2.30;;;;;;;31.91;30.33;100034.31;1664645;86;21463;-62
2022/06/13 08:38:13;;;;;;;3.15;2.40;;;;;;;31.99;30.64;100027.14;1664579;86;21095;-63
2022/06/13 08:41:03;;;;;;;4.00;2.62;;;;;;;32.14;30.55;100032.72;1682883;84;21036;-62
2022/06/13 08:44:13;;;;;;;4.08;2.00;;;;;;;32.26;30.00;100031.36;1655817;86;21131;-61
2022/06/13 08:46:51;;;;;;;3.62;2.47;;;;;;;32.39;29.46;100025.94;1668876;85;21484;-61
2022/06/13 08:49:42;;;;;;;3.85;2.60;;;;;;;32.40;29.64;100029.01;1662347;86;21443;-61
2022/06/13 08:52:31;;;;;;;3.50;2.50;;;;;;;32.43;29.96;100026.88;1662441;86;21094;-62
2022/06/13 08:55:16;;;;;;;3.67;2.90;;;;;;;32.47;29.74;100030.67;1690580;83;21019;-60
2022/06/13 08:57:50;;;;;;;3.23;2.50;;;;;;;32.56;29.38;100028.34;1687347;84;21047;-60
2022/06/13 09:00:23;;;;;;;4.00;2.87;;;;;;;32.41;29.91;100024.16;1687389;84;21481;-60
2022/06/13 09:03:01;;;;;;;5.12;2.85;;;;;;;32.52;29.56;100025.38;1666999;85;21040;-61
2022/06/13 09:05:38;;;;;;;6.95;2.42;;;;;;;32.40;30.15;100031.84;1659821;85;21494;-60
2022/06/13 09:08:21;;;;;;;7.50;3.17;;;;;;;32.38;29.93;100024.28;1670796;84;21111;-62
2022/06/13 09:11:17;;;;;;;5.00;2.17;;;;;;;32.29;30.05;100024.98;1672285;85;21099;-61
2022/06/13 09:14:20;;;;;;;4.17;2.27;;;;;;;32.20;29.96;100019.14;1671413;85;21043;-62
2022/06/13 09:17:08;;;;;;;3.42;2.35;;;;;;;32.05;30.32;100022.90;1657113;86;21084;-63
2022/06/13 09:19:54;;;;;;;3.62;2.50;;;;;;;31.90;30.58;100018.48;1644724;86;21086;-63
2022/06/13 09:22:33;;;;;;;2.75;2.42;;;;;;;31.79;30.53;100014.65;1651361;85;21585;-62
2022/06/13 09:25:13;;;;;;;4.40;2.25;;;;;;;31.69;30.50;100002.89;1659509;85;21477;-62
2022/06/13 09:27:51;;;;;;;3.42;2.25;;;;;;;31.49;30.16;100018.75;1658644;86;21112;-62
2022/06/13 09:30:40;;;;;;;3.00;2.25;;;;;;;31.37;29.34;100013.03;1659625;86;21540;-61
2022/06/13 09:33:14;;;;;;;6.33;2.70;;;;;;;31.25;29.14;100005.89;1660057;86;21007;-62
2022/06/13 09:35:47;;;;;;;3.45;2.42;;;;;;;31.16;29.90;100009.59;1678155;85;21110;-62
2022/06/13 09:38:31;;;;;;;3.30;2.40;;;;;;;31.10;30.40;100016.59;1684093;84;21119;-62
2022/06/13 09:41:05;;;;;;;3.20;2.50;;;;;;;30.99;30.16;100004.03;1683864;85;21067;-62
2022/06/13 09:44:09;;;;;;;5.50;2.52;;;;;;;30.81;30.15;100010.39;1683544;84;21074;-64
2022/06/13 09:46:44;;;;;;;6.50;3.00;;;;;;;30.71;30.25;100014.20;1683222;85;21178;-62
2022/06/13 09:49:20;;;;;;;4.37;2.15;;;;;;;30.51;29.92;100008.09;1698592;84;21092;-62
2022/06/13 09:52:08;;;;;;;2.98;2.50;;;;;;;30.38;29.40;100009.74;1690686;84;21043;-63
2022/06/13 09:55:13;;;;;;;2.47;2.15;;;;;;;30.28;29.17;100008.95;1688707;83;21098;-62
2022/06/13 09:58:05;;;;;;;3.98;2.52;;;;;;;30.23;29.22;100002.66;1684766;85;21074;-57
2022/06/13 10:00:59;;;;;;;2.67;1.98;;;;;;;30.01;29.77;99991.57;1688375;85;21079;-61
2022/06/13 10:03:52;;;;;;;3.98;2.00;;;;;;;29.92;29.36;99998.08;1708214;83;21101;-59
2022/06/13 10:06:49;;;;;;;2.40;2.20;;;;;;;30.00;29.22;100005.45;1717942;82;21095;-60
2022/06/13 10:09:24;;;;;;;;;;;;;;;30.06;28.89;100002.72;1716226;84;21535;-61
2022/06/13 10:12:31;;;;;;;5.50;2.10;;;;;;;29.97;28.55;99997.90;1714141;82;20292;-62
2022/06/13 10:15:19;;;;;;;4.00;1.98;;;;;;;29.93;28.79;99993.26;1714389;83;21099;-61
2022/06/13 10:18:04;;;;;;;2.15;1.85;;;;;;;29.95;28.75;99994.58;1713970;83;21436;-62
2022/06/13 10:20:46;;;;;;;5.22;1.82;;;;;;;29.93;28.18;99996.91;1714280;82;21031;-62
2022/06/13 10:23:29;;;;;;;4.55;2.60;;;;;;;29.85;27.51;99989.27;1717574;82;21102;-63
2022/06/13 10:26:20;;;;;;;;;;;;;;;29.70;27.67;99985.56;1725020;83;21431;-62
2022/06/13 10:29:06;;;;;;;3.67;2.47;;;;;;;29.75;28.57;99981.73;1721993;82;20506;-60
2022/06/13 10:32:02;;;;;;;4.20;2.02;;;;;;;29.94;28.94;99977.38;1662005;86;21049;-62
2022/06/13 10:34:57;;;;;;;4.33;2.50;;;;;;;29.89;29.13;99980.94;1688902;84;21035;-62
2022/06/13 10:38:12;;;;;;;3.37;2.00;;;;;;;29.89;29.13;99980.94;1697474;84;21529;-63
2022/06/13 10:40:42;;;;;;;3.12;2.35;;;;;;;29.88;29.17;99967.98;1669821;86;21089;-61
2022/06/13 10:43:11;;;;;;;5.58;2.75;;;;;;;29.74;30.88;99978.08;1715587;83;21058;-63
2022/06/13 10:45:42;;;;;;;5.60;2.50;;;;;;;29.74;30.88;99978.08;1650972;86;21123;-62
2022/06/13 10:48:30;;;;;;;3.72;2.70;;;;;;;29.73;31.30;99970.77;1678168;83;21464;-63
2022/06/13 10:50:59;;;;;;;6.05;3.00;;;;;;;29.64;31.22;99969.95;1683048;85;21609;-61
2022/06/13 10:53:52;;;;;;;3.45;2.15;;;;;;;29.52;31.61;99970.65;1651476;86;21151;-62
2022/06/13 10:56:32;;;;;;;2.65;2.20;;;;;;;29.49;31.65;99967.66;1686652;84;21076;-63
2022/06/13 10:59:01;;;;;;;6.95;2.80;;;;;;;29.43;31.85;99977.44;1673324;85;21055;-63
2022/06/13 11:01:32;;;;;;;3.22;2.00;;;;;;;29.38;31.95;99971.96;1703536;84;21055;-63
2022/06/13 11:04:17;;;;;;;3.15;2.30;;;;;;;29.28;31.53;99968.91;1712711;84;21082;-61
2022/06/13 11:06:49;;;;;;;;;;;;;;;29.12;31.44;99964.89;1662398;86;21104;-61
2022/06/13 11:09:46;;;;;;;5.15;2.50;;;;;;;29.02;31.86;99975.34;1656181;86;20294;-61
2022/06/13 11:12:31;;;;;;;4.47;2.40;;;;;;;29.04;32.35;99966.55;1666956;86;21106;-60
2022/06/13 11:24:48;;;;;;;7.25;2.10;;;;;;;28.92;30.80;99957.92;1664929;85;21042;-61
2022/06/13 11:27:40;;;;;;;2.92;2.10;;;;;;;28.83;30.61;99961.28;1674966;84;21495;-61
2022/06/13 11:30:38;;;;;;;5.45;2.08;;;;;;;28.83;30.46;99955.64;1647790;87;21067;-62
2022/06/13 11:33:33;;;;;;;2.27;2.02;;;;;;;28.80;30.62;99958.55;1684671;84;21031;-60
2022/06/13 11:36:21;;;;;;;3.10;2.22;;;;;;;28.83;30.00;99955.06;1689879;85;21062;-62
2022/06/13 11:38:56;;;;;;;2.33;2.12;;;;;;;28.89;30.22;99954.34;1682585;85;21082;-62
2022/06/13 11:41:43;;;;;;;2.50;2.30;;;;;;;28.90;29.39;99946.97;1691590;84;21067;-61
2022/06/13 11:44:17;;;;;;;4.12;2.47;;;;;;;28.82;29.70;99944.94;1685812;85;21030;-61
2022/06/13 11:47:00;;;;;;;3.47;2.35;;;;;;;28.82;29.29;99942.13;1680947;85;21067;-64
2022/06/13 11:49:42;;;;;;;5.22;2.40;;;;;;;28.86;29.73;99943.73;1648661;86;21107;-61
2022/06/13 11:53:35;;;;;;;5.90;2.50;;;;;;;28.77;29.86;99930.17;1681962;85;21039;-61
2022/06/13 11:54:57;;;;;;;3.77;2.30;;;;;;;28.77;29.86;99930.17;1654497;86;21106;-59
2022/06/13 11:57:36;;;;;;;4.35;2.33;;;;;;;28.77;29.82;99931.00;1652406;86;21060;-62
2022/06/13 12:00:19;;;;;;;2.55;1.80;;;;;;;28.83;29.89;99927.44;1677756;84;21031;-62
2022/06/13 12:02:56;;;;;;;8.40;2.30;;;;;;;28.90;29.88;99926.39;1700770;84;21063;-61
2022/06/13 12:05:33;;;;;;;2.30;2.10;;;;;;;28.91;29.65;99931.70;1687530;84;21569;-64
2022/06/13 12:08:10;;;;;;;3.42;2.33;;;;;;;28.89;29.46;99919.92;1653863;85;21079;-61
2022/06/13 12:10:45;;;;;;;5.58;2.52;;;;;;;28.82;29.78;99922.96;1660299;85;21059;-63
2022/06/13 12:13:16;;;;;;;3.77;2.08;;;;;;;28.71;29.69;99921.88;1699169;83;21507;-62
2022/06/13 12:16:12;;;;;;;4.08;2.52;;;;;;;28.59;30.32;99920.25;1687749;83;21122;-63
2022/06/13 12:18:59;;;;;;;6.55;2.70;;;;;;;28.60;29.79;99923.33;1686908;83;21148;-61
2022/06/13 12:21:57;;;;;;;4.05;2.20;;;;;;;28.58;29.21;99917.19;1633599;87;21028;-61
2022/06/13 12:24:37;;;;;;;2.83;2.00;;;;;;;28.62;28.62;99912.58;1701050;83;21071;-61
2022/06/13 12:27:44;;;;;;;3.02;2.08;;;;;;;28.63;28.47;99909.17;1710115;83;21561;-63
2022/06/13 12:30:33;;;;;;;3.33;2.15;;;;;;;28.60;28.72;99899.94;1710014;84;21031;-60
2022/06/13 12:33:26;;;;;;;2.37;2.17;;;;;;;28.65;28.39;99902.63;1721843;82;21018;-63
2022/06/13 12:36:34;;;;;;;3.25;1.95;;;;;;;28.71;28.65;99895.09;1714728;83;21072;-62
2022/06/13 12:39:23;;;;;;;3.33;2.10;;;;;;;28.71;28.96;99887.21;1713277;83;21510;-63
2022/06/13 12:42:12;;;;;;;5.37;2.40;;;;;;;28.68;28.84;99891.52;1697486;83;21022;-65
2022/06/13 12:45:26;;;;;;;2.80;1.90;;;;;;;28.68;29.00;99885.05;1680709;83;21071;-63
2022/06/13 12:48:19;;;;;;;2.87;1.92;;;;;;;28.73;28.96;99891.94;1711993;84;21222;-63
2022/06/13 12:51:02;;;;;;;5.25;1.98;;;;;;;28.79;28.02;99879.91;1709229;83;21052;-62
2022/06/13 12:54:02;;;;;;;2.60;1.80;;;;;;;28.75;29.03;99873.28;1712468;83;21036;-63